Time;durP1;ratioP1;P1;durP2;ratioP2;P2;SDS_P1;SDS_P2;PMS_P1;PMS_P2;Temp;Humidity;BMP_temperature;BMP_pressure;BME280_temperature;BME280_humidity;BME280_pressure;Samples;Min_cycle;Max_cycle;Signal;HPM_P1;HPM_P2
2022/08/05 00:00:16;;;;;;;0.40;0.40;;;23.20;49.20;;;23.92;35.69;94871.44;5038528;28;20609;-76
2022/08/05 00:02:46;;;;;;;0.40;0.40;;;23.20;49.30;;;23.89;35.40;94866.63;5064087;28;20617;-77
2022/08/05 00:05:23;;;;;;;0.30;0.30;;;23.20;49.40;;;23.88;35.36;94867.69;5047196;28;20298;-77
2022/08/05 00:08:10;;;;;;;0.40;0.40;;;23.10;49.50;;;23.82;35.50;94864.22;5066331;28;20226;-77
2022/08/05 00:10:59;;;;;;;0.40;0.40;;;23.20;49.20;;;23.79;35.40;94866.66;5065697;28;20261;-77
2022/08/05 00:13:32;;;;;;;0.57;0.57;;;23.10;49.30;;;23.77;35.59;94868.84;5067291;28;20193;-77
2022/08/05 00:16:12;;;;;;;0.43;0.43;;;23.10;49.40;;;23.72;35.75;94864.28;5050107;28;20230;-77
2022/08/05 00:18:45;;;;;;;0.40;0.40;;;23.00;49.60;;;23.66;35.80;94860.03;5050988;28;20276;-77
2022/08/05 00:21:16;;;;;;;0.30;0.30;;;23.00;49.70;;;23.62;35.66;94861.66;5054575;28;20310;-77
2022/08/05 00:23:46;;;;;;;0.30;0.30;;;23.00;49.70;;;23.58;35.85;94861.44;5050949;28;20618;-77
2022/08/05 00:26:33;;;;;;;0.35;0.35;;;22.90;49.80;;;23.51;35.54;94868.97;5060671;28;20222;-77
2022/08/05 00:29:00;;;;;;;0.30;0.30;;;22.90;49.60;;;23.49;35.92;94865.75;5069898;28;20291;-77
2022/08/05 00:31:28;;;;;;;0.40;0.40;;;22.80;49.60;;;23.44;35.83;94855.06;5031153;28;20320;-77
2022/08/05 00:34:15;;;;;;;0.30;0.30;;;22.80;49.70;;;23.36;35.56;94856.44;5048566;28;20195;-77
2022/08/05 00:37:02;;;;;;;0.40;0.40;;;22.70;49.50;;;23.31;35.63;94865.31;5044436;28;20579;-77
2022/08/05 00:39:43;;;;;;;0.40;0.40;;;22.70;49.60;;;23.26;36.14;94853.81;5046701;28;20660;-77
2022/08/05 00:42:38;;;;;;;0.40;0.40;;;22.60;49.60;;;23.21;36.15;94851.94;5056986;28;20219;-77
2022/08/05 00:45:08;;;;;;;0.40;0.40;;;22.60;49.90;;;23.18;35.89;94855.97;5050963;28;20670;-77
2022/08/05 00:47:40;;;;;;;0.47;0.47;;;22.50;49.70;;;23.15;35.55;94850.34;5064800;28;20218;-77
2022/08/05 00:50:27;;;;;;;0.40;0.40;;;22.50;49.70;;;23.11;36.15;94844.72;5039500;28;20192;-76
2022/08/05 00:52:54;;;;;;;0.30;0.30;;;22.40;51.00;;;23.07;35.94;94837.50;5050865;28;20218;-77
2022/08/05 00:55:22;;;;;;;0.30;0.30;;;22.40;49.90;;;23.03;35.78;94842.59;5051211;28;20206;-77
2022/08/05 00:58:17;;;;;;;0.50;0.50;;;22.40;50.00;;;22.97;36.34;94841.84;5054053;28;20276;-78
2022/08/05 01:00:46;;;;;;;0.30;0.30;;;22.40;50.30;;;22.93;36.29;94846.09;5037502;28;20221;-77
2022/08/05 01:03:16;;;;;;;0.30;0.30;;;22.30;50.00;;;22.90;36.45;94838.66;5086690;28;20218;-77
2022/08/05 01:05:51;;;;;;;0.60;0.60;;;22.30;50.10;;;22.84;36.20;94843.19;5065826;28;20245;-77
2022/08/05 01:08:21;;;;;;;0.40;0.40;;;22.20;50.20;;;22.80;36.25;94838.66;5066382;28;20230;-77
2022/08/05 01:11:24;;;;;;;0.60;0.60;;;22.20;50.30;;;22.73;36.38;94835.44;5054234;28;20232;-78
2022/08/05 01:14:23;;;;;;;0.30;0.30;;;22.10;50.30;;;22.67;36.49;94829.34;5050197;28;20199;-77
2022/08/05 01:17:13;;;;;;;0.38;0.38;;;22.10;50.20;;;22.61;36.76;94825.84;5066970;28;20228;-77
2022/08/05 01:20:05;;;;;;;0.40;0.40;;;22.00;50.40;;;22.55;36.55;94834.97;5056857;28;20245;-76
2022/08/05 01:22:50;;;;;;;0.30;0.30;;;22.00;50.60;;;22.53;36.60;94837.09;5041676;28;20313;-77
2022/08/05 01:25:53;;;;;;;0.40;0.40;;;22.00;50.50;;;22.45;36.69;94825.09;5057486;28;20209;-77
2022/08/05 01:28:25;;;;;;;0.40;0.40;;;21.90;50.50;;;22.43;36.81;94835.22;5063473;28;20231;-75
2022/08/05 01:31:15;;;;;;;0.30;0.30;;;21.90;50.60;;;22.38;36.67;94827.22;5044840;28;20221;-77
2022/08/05 01:33:50;;;;;;;0.40;0.40;;;21.80;51.10;;;22.37;36.79;94821.06;5060987;28;20198;-76
2022/08/05 01:36:21;;;;;;;0.30;0.30;;;21.80;51.10;;;22.34;36.72;94821.59;5034368;28;20303;-77
2022/08/05 01:38:55;;;;;;;0.43;0.43;;;21.70;50.70;;;22.29;36.88;94818.91;5069666;28;20319;-77
2022/08/05 01:41:30;;;;;;;0.40;0.40;;;21.70;51.00;;;22.29;37.47;94818.91;5048491;28;20620;-77
2022/08/05 01:44:01;;;;;;;0.40;0.40;;;21.70;51.10;;;22.28;37.04;94820.00;5057453;28;20643;-77
2022/08/05 01:46:30;;;;;;;0.30;0.30;;;21.70;51.30;;;22.25;37.52;94812.50;5054960;28;20323;-78
2022/08/05 01:49:18;;;;;;;0.30;0.30;;;21.70;51.50;;;22.21;37.53;94812.22;5038063;28;20220;-77
2022/08/05 01:51:58;;;;;;;0.40;0.40;;;21.60;51.50;;;22.19;37.62;94811.72;5053460;28;20619;-77
2022/08/05 01:54:46;;;;;;;0.30;0.30;;;21.60;51.60;;;22.17;37.51;94813.06;5057236;28;20198;-77
2022/08/05 01:57:25;;;;;;;0.40;0.40;;;21.50;51.50;;;22.08;37.95;94802.06;5053647;28;20235;-77
2022/08/05 02:00:13;;;;;;;0.40;0.40;;;21.50;51.60;;;22.07;37.39;94803.97;5047015;28;20240;-76
2022/08/05 02:02:48;;;;;;;0.40;0.40;;;21.50;51.60;;;22.08;37.70;94810.09;5068156;28;20220;-77
2022/08/05 02:05:27;;;;;;;0.40;0.40;;;21.40;51.80;;;22.06;37.39;94814.91;5054616;28;20621;-76
2022/08/05 02:07:56;;;;;;;0.40;0.40;;;21.40;51.60;;;22.02;37.73;94809.31;5069985;28;20200;-77
2022/08/05 02:10:35;;;;;;;0.40;0.40;;;21.40;53.00;;;22.00;37.94;94807.97;5051897;28;20228;-77
2022/08/05 02:13:15;;;;;;;0.40;0.40;;;21.40;52.00;;;21.95;37.76;94800.75;5070034;28;20211;-77
2022/08/05 02:15:59;;;;;;;0.40;0.40;;;21.30;52.30;;;21.94;38.02;94809.03;5067076;28;20218;-77
2022/08/05 02:18:40;;;;;;;0.40;0.40;;;21.30;52.10;;;21.87;37.78;94806.63;5067438;28;20293;-77
2022/08/05 02:21:34;;;;;;;0.40;0.40;;;21.30;52.30;;;21.83;38.23;94806.34;5057791;28;20223;-77
2022/08/05 02:24:19;;;;;;;0.40;0.40;;;21.30;51.90;;;21.79;38.40;94799.94;5054005;28;20226;-77
2022/08/05 02:26:55;;;;;;;0.40;0.40;;;21.20;52.40;;;21.77;38.15;94799.41;5043803;28;20642;-77
2022/08/05 02:29:27;;;;;;;0.40;0.40;;;21.20;52.50;;;21.75;38.59;94802.34;5068313;28;20294;-75
2022/08/05 02:32:19;;;;;;;0.40;0.40;;;21.20;52.50;;;21.72;38.52;94805.53;5064262;28;20393;-77
2022/08/05 02:35:04;;;;;;;0.45;0.45;;;21.20;52.60;;;21.67;38.55;94805.53;5051214;28;20192;-77
2022/08/05 02:37:43;;;;;;;0.40;0.40;;;21.10;52.60;;;21.65;38.30;94796.97;5051152;28;20575;-77
2022/08/05 02:40:22;;;;;;;0.40;0.40;;;21.10;52.50;;;21.63;38.40;94796.47;5051875;28;20198;-77
2022/08/05 02:42:52;;;;;;;0.40;0.40;;;21.00;52.40;;;21.60;38.51;94788.97;5039554;28;20195;-77
2022/08/05 02:45:23;;;;;;;0.40;0.40;;;21.10;52.60;;;21.61;38.70;94789.78;5066519;28;20284;-77
2022/08/05 02:47:56;;;;;;;0.40;0.40;;;21.00;52.50;;;21.61;38.23;94789.78;5050572;28;20187;-77
2022/08/05 02:50:37;;;;;;;0.40;0.40;;;21.00;52.50;;;21.61;38.80;94793.25;5052142;28;20187;-77
2022/08/05 02:53:11;;;;;;;0.40;0.40;;;21.00;52.60;;;21.59;38.62;94790.84;5036514;28;20206;-78
2022/08/05 02:55:51;;;;;;;0.40;0.40;;;21.00;52.80;;;21.58;39.05;94786.56;5058566;28;20218;-76
2022/08/05 02:58:28;;;;;;;0.50;0.50;;;21.00;53.20;;;21.57;38.44;94784.97;5048453;28;20195;-77
2022/08/05 03:00:59;;;;;;;0.40;0.40;;;21.00;52.90;;;21.56;38.82;94790.53;5068116;28;20235;-77
2022/08/05 03:03:30;;;;;;;0.35;0.35;;;21.00;53.00;;;21.47;39.20;94776.09;5051669;28;20283;-77
2022/08/05 03:06:20;;;;;;;0.40;0.40;;;20.90;52.90;;;21.50;39.09;94787.03;5060726;28;20696;-77
2022/08/05 03:09:12;;;;;;;0.40;0.40;;;20.90;53.20;;;21.44;38.79;94780.88;5047396;28;20295;-78
2022/08/05 03:11:44;;;;;;;0.40;0.40;;;20.90;53.30;;;21.43;38.98;94795.31;5071848;28;20215;-77
2022/08/05 03:14:23;;;;;;;0.40;0.40;;;20.90;53.10;;;21.35;38.69;94779.00;5047684;28;20200;-77
2022/08/05 03:16:52;;;;;;;0.45;0.45;;;20.80;53.00;;;21.36;39.22;94780.59;5050936;28;20215;-77
2022/08/05 03:19:20;;;;;;;0.40;0.40;;;20.80;53.30;;;21.33;38.91;94783.81;5050575;28;20308;-77
2022/08/05 03:22:00;;;;;;;0.40;0.40;;;20.80;53.30;;;21.27;39.47;94778.44;5051243;28;20207;-77
2022/08/05 03:24:29;;;;;;;0.40;0.40;;;20.70;53.30;;;21.24;39.33;94773.66;5051477;28;20302;-76
2022/08/05 03:27:00;;;;;;;0.40;0.40;;;20.70;53.40;;;21.19;39.54;94778.16;5032932;28;20246;-77
2022/08/05 03:29:27;;;;;;;0.40;0.40;;;20.70;53.70;;;21.20;39.67;94779.75;5049700;28;20204;-77
2022/08/05 03:32:15;;;;;;;0.40;0.40;;;20.60;53.50;;;21.16;39.37;94776.03;5062764;28;20215;-78
2022/08/05 03:34:46;;;;;;;0.40;0.40;;;20.70;53.70;;;21.13;39.54;94781.88;5069389;28;20529;-78
2022/08/05 03:37:19;;;;;;;0.40;0.40;;;20.60;53.80;;;21.08;39.74;94774.66;5042973;28;20237;-78
2022/08/05 03:39:58;;;;;;;0.40;0.40;;;20.60;54.00;;;21.05;39.89;94783.19;5052253;28;20198;-78
2022/08/05 03:42:30;;;;;;;0.40;0.40;;;20.60;54.30;;;21.01;40.14;94777.56;5053357;28;20218;-78
2022/08/05 03:45:08;;;;;;;0.43;0.43;;;20.50;54.10;;;20.98;39.66;94774.63;5050205;28;20694;-77
2022/08/05 03:47:50;;;;;;;0.40;0.40;;;20.50;54.10;;;20.94;40.11;94779.69;5047608;28;20290;-78
2022/08/05 03:50:24;;;;;;;0.45;0.45;;;20.50;54.20;;;20.92;40.26;94779.94;5045748;28;20295;-78
2022/08/05 03:53:10;;;;;;;0.40;0.40;;;20.40;54.20;;;20.90;40.63;94782.06;5029622;28;20196;-78
2022/08/05 03:56:08;;;;;;;0.40;0.40;;;20.40;54.50;;;20.89;40.44;94782.31;5073618;28;20292;-77
2022/08/05 03:58:47;;;;;;;0.40;0.40;;;20.40;54.70;;;20.89;40.22;94777.00;5048604;28;20196;-78
2022/08/05 04:01:20;;;;;;;0.40;0.40;;;20.40;54.50;;;20.87;40.58;94782.59;5054441;28;20214;-77
2022/08/05 04:03:49;;;;;;;0.40;0.40;;;20.30;54.60;;;20.90;39.86;94774.06;5034937;28;20270;-78
2022/08/05 04:06:37;;;;;;;0.40;0.40;;;20.30;54.60;;;20.90;40.21;94771.41;5051180;28;20224;-77
2022/08/05 04:09:17;;;;;;;0.40;0.40;;;20.30;54.50;;;20.91;40.73;94769.50;5063407;28;20880;-77
2022/08/05 04:11:54;;;;;;;0.30;0.30;;;20.30;54.90;;;20.92;40.70;94768.47;5070136;28;20691;-77
2022/08/05 04:14:25;;;;;;;0.35;0.35;;;20.40;55.00;;;20.91;40.42;94766.84;5052449;28;20240;-77
2022/08/05 04:16:58;;;;;;;0.35;0.35;;;20.40;55.40;;;20.94;40.65;94767.13;5078849;28;20555;-78
2022/08/05 04:19:28;;;;;;;0.40;0.40;;;20.40;55.30;;;20.98;40.56;94769.28;5051245;28;20609;-78
2022/08/05 04:21:55;;;;;;;0.40;0.40;;;20.40;55.40;;;20.99;40.76;94766.34;5067607;28;20265;-78
2022/08/05 04:24:39;;;;;;;0.40;0.40;;;20.50;55.40;;;21.06;41.18;94768.78;5050246;28;20248;-78
2022/08/05 04:27:12;;;;;;;0.50;0.50;;;20.50;55.60;;;21.10;40.61;94773.34;5057626;28;20261;-78
2022/08/05 04:29:40;;;;;;;0.40;0.40;;;20.50;55.40;;;21.15;40.96;94775.22;5067370;28;20235;-78
2022/08/05 04:32:09;;;;;;;0.40;0.40;;;20.60;56.00;;;21.21;40.80;94776.03;5067491;28;20235;-78
2022/08/05 04:34:36;;;;;;;0.35;0.35;;;20.60;55.70;;;21.24;40.90;94770.97;5032643;28;20207;-78
2022/08/05 04:37:09;;;;;;;0.40;0.40;;;20.70;55.90;;;21.30;41.29;94769.13;5035349;28;20220;-78
2022/08/05 04:39:37;;;;;;;0.35;0.35;;;20.70;55.80;;;21.37;41.45;94775.03;5067385;28;20653;-78
2022/08/05 04:42:06;;;;;;;0.40;0.40;;;20.80;56.00;;;21.42;41.34;94769.69;5067124;28;20280;-78
2022/08/05 04:44:35;;;;;;;0.30;0.30;;;20.90;56.10;;;21.46;41.15;94766.47;5031849;28;20199;-77
2022/08/05 04:47:02;;;;;;;0.40;0.40;;;20.90;56.10;;;21.54;41.22;94771.31;5048225;28;20222;-78
2022/08/05 04:49:39;;;;;;;0.40;0.40;;;21.00;56.00;;;21.59;41.26;94774.00;5070388;28;20582;-77
2022/08/05 04:52:27;;;;;;;0.40;0.40;;;21.00;56.00;;;21.63;41.15;94768.94;5044935;28;20215;-78
2022/08/05 04:54:55;;;;;;;0.40;0.40;;;21.10;56.10;;;21.70;41.21;94772.97;5072405;28;20653;-78
2022/08/05 04:57:24;;;;;;;0.30;0.30;;;21.20;56.20;;;21.74;41.18;94767.91;5071327;28;20225;-77
2022/08/05 04:59:58;;;;;;;0.40;0.40;;;21.30;56.30;;;21.84;41.37;94777.78;5062194;28;20193;-76
2022/08/05 05:02:26;;;;;;;0.40;0.40;;;21.30;56.30;;;21.89;41.17;94773.25;5052029;28;20252;-78
2022/08/05 05:05:08;;;;;;;0.40;0.40;;;21.40;56.60;;;21.96;41.67;94772.16;5048994;28;20201;-77
2022/08/05 05:07:59;;;;;;;0.45;0.45;;;21.40;56.10;;;22.01;41.30;94774.88;5062028;28;20555;-78
2022/08/05 05:10:43;;;;;;;0.40;0.40;;;21.50;56.40;;;22.13;41.77;94785.25;5053771;28;20218;-78
2022/08/05 05:13:21;;;;;;;0.30;0.30;;;21.60;56.80;;;22.20;41.50;94788.47;5034607;28;20292;-78
2022/08/05 05:15:49;;;;;;;0.30;0.30;;;21.70;56.50;;;22.29;41.32;94794.06;5051021;28;20213;-78
2022/08/05 05:18:28;;;;;;;0.30;0.30;;;21.80;56.50;;;22.34;41.83;94778.03;5048510;28;20213;-77
2022/08/05 05:21:00;;;;;;;0.38;0.38;;;21.80;56.50;;;22.47;41.87;94792.72;5066225;28;20215;-78
2022/08/05 05:23:29;;;;;;;0.32;0.32;;;21.90;56.70;;;22.53;41.64;94789.81;5066554;28;20209;-78
2022/08/05 05:26:16;;;;;;;0.40;0.40;;;22.00;56.80;;;22.61;41.91;94796.47;5020579;28;20214;-78
2022/08/05 05:28:43;;;;;;;0.40;0.40;;;22.10;56.70;;;22.69;41.81;94790.56;5034656;28;20676;-78
2022/08/05 05:31:12;;;;;;;0.32;0.32;;;22.20;56.80;;;22.79;41.83;94796.94;5060827;28;20226;-78
2022/08/05 05:33:39;;;;;;;0.40;0.40;;;22.30;56.70;;;22.89;41.64;94796.91;5067002;28;20728;-78
2022/08/05 05:36:26;;;;;;;0.30;0.30;;;22.30;56.60;;;22.95;41.63;94792.34;5058840;28;20218;-78
2022/08/05 05:38:56;;;;;;;0.40;0.40;;;22.40;56.50;;;23.07;41.34;94798.19;5034008;28;20203;-78
2022/08/05 05:41:24;;;;;;;0.35;0.35;;;22.50;56.60;;;23.19;41.73;94795.22;5058005;28;20318;-77
2022/08/05 05:44:06;;;;;;;0.40;0.40;;;22.60;56.60;;;23.28;41.59;94796.25;5058465;28;20231;-77
2022/08/05 05:46:53;;;;;;;0.50;0.50;;;22.70;56.50;;;23.41;41.30;94802.91;5067940;28;20223;-76
2022/08/05 05:49:22;;;;;;;0.40;0.40;;;22.90;56.90;;;23.52;41.57;94798.25;5053264;28;20215;-77
2022/08/05 05:51:49;;;;;;;0.40;0.40;;;22.90;56.80;;;23.62;41.34;94806.25;5066149;28;20220;-77
2022/08/05 05:54:19;;;;;;;0.40;0.40;;;23.10;56.40;;;23.72;41.37;94796.56;5059462;28;20215;-79
2022/08/05 05:56:47;;;;;;;0.30;0.30;;;23.10;56.10;;;23.80;41.20;94791.41;5073698;28;20210;-78
2022/08/05 05:59:14;;;;;;;0.30;0.30;;;23.30;56.20;;;23.88;41.56;94798.03;5073481;28;20207;-77
2022/08/05 06:01:42;;;;;;;0.30;0.30;;;23.40;56.30;;;23.98;41.16;94799.88;5036148;28;20219;-78
2022/08/05 06:04:24;;;;;;;0.40;0.40;;;23.40;56.20;;;24.06;41.10;94793.94;5075142;28;20184;-78
2022/08/05 06:06:51;;;;;;;0.40;0.40;;;23.60;56.00;;;24.14;41.16;94792.50;5059057;28;20302;-78
2022/08/05 06:09:18;;;;;;;0.40;0.40;;;23.60;56.00;;;24.21;40.87;94787.63;5053613;28;20228;-78
2022/08/05 06:12:06;;;;;;;0.30;0.30;;;23.70;56.00;;;24.28;40.90;94784.63;5025454;28;20215;-78
2022/08/05 06:14:38;;;;;;;0.22;0.22;;;23.80;55.90;;;24.39;40.88;94790.69;5051860;28;20203;-78
2022/08/05 06:17:06;;;;;;;0.50;0.50;;;23.90;55.80;;;24.47;40.55;94787.41;5055050;28;20268;-78
2022/08/05 06:19:53;;;;;;;0.50;0.50;;;24.00;55.60;;;24.55;40.59;94784.09;5067762;28;20199;-77
2022/08/05 06:22:34;;;;;;;0.38;0.38;;;24.10;56.90;;;24.63;40.70;94788.03;5056834;28;20637;-77
2022/08/05 06:25:07;;;;;;;0.32;0.32;;;24.20;55.70;;;24.71;40.34;94782.09;5073137;28;20225;-78
2022/08/05 06:27:52;;;;;;;0.32;0.32;;;24.20;55.60;;;24.81;40.63;94786.53;5055370;28;20218;-78
2022/08/05 06:30:39;;;;;;;0.60;0.60;;;24.30;55.50;;;24.90;40.72;94781.34;5058663;28;20215;-78
2022/08/05 06:33:08;;;;;;;0.30;0.30;;;24.40;55.50;;;24.99;40.78;94784.22;5052210;28;20233;-77
2022/08/05 06:35:37;;;;;;;0.50;0.50;;;24.50;55.60;;;25.03;40.31;94779.88;5056637;28;20200;-77
2022/08/05 06:38:25;;;;;;;0.55;0.55;;;24.60;55.60;;;25.16;40.52;94794.47;5067139;28;20283;-78
2022/08/05 06:41:03;;;;;;;0.30;0.30;;;24.70;55.70;;;25.25;40.53;94784.69;5061900;28;20592;-80
2022/08/05 06:43:34;;;;;;;0.30;0.30;;;24.80;55.60;;;25.29;40.38;94777.66;5055539;28;20261;-78
2022/08/05 06:46:22;;;;;;;0.40;0.40;;;24.90;55.30;;;25.40;40.04;94781.03;5058625;28;20223;-78
2022/08/05 06:48:58;;;;;;;0.30;0.30;;;25.00;55.10;;;25.50;40.49;94783.59;5053865;28;20660;-78
2022/08/05 06:51:28;;;;;;;0.30;0.30;;;25.10;55.30;;;25.61;40.16;94786.13;5056139;28;20233;-78
2022/08/05 06:54:03;;;;;;;0.40;0.40;;;25.10;55.20;;;25.71;40.48;94794.06;5058128;28;20205;-78
2022/08/05 06:56:31;;;;;;;0.30;0.30;;;25.20;55.40;;;25.75;40.10;94778.94;5086285;28;20573;-79
2022/08/05 06:59:02;;;;;;;0.30;0.30;;;25.30;55.30;;;25.91;40.22;94786.78;5052112;28;20211;-79
2022/08/05 07:01:37;;;;;;;0.43;0.43;;;25.40;55.40;;;26.01;40.21;94791.97;5067832;28;20728;-80
2022/08/05 07:04:08;;;;;;;0.30;0.30;;;25.50;55.00;;;26.11;40.10;94791.03;5049789;28;20714;-79
2022/08/05 07:06:36;;;;;;;0.22;0.22;;;25.60;55.00;;;26.20;40.05;94798.16;5068832;28;20209;-79
2022/08/05 07:09:03;;;;;;;0.30;0.30;;;25.70;54.90;;;26.30;39.93;94791.81;5068516;28;20206;-79
2022/08/05 07:11:34;;;;;;;0.30;0.30;;;25.80;54.80;;;26.39;39.86;94794.63;5051295;28;20222;-80
2022/08/05 07:17:01;;;;;;;0.30;0.30;;;26.00;54.80;;;26.57;39.67;94790.25;5037343;28;20290;-77
2022/08/05 07:19:51;;;;;;;0.30;0.30;;;26.20;54.50;;;26.67;39.82;94789.28;5047992;28;20295;-79
2022/08/05 07:22:38;;;;;;;0.50;0.50;;;26.20;54.50;;;26.74;39.96;94773.53;5058717;28;20242;-79
2022/08/05 07:25:08;;;;;;;0.28;0.28;;;26.40;54.80;;;26.88;39.27;94780.84;5052256;28;20244;-78
2022/08/05 07:27:55;;;;;;;0.28;0.28;;;26.40;54.30;;;26.97;39.71;94782.56;5055565;28;20233;-79
2022/08/05 07:30:36;;;;;;;0.30;0.30;;;26.60;54.20;;;27.07;39.15;94781.56;5046929;28;20230;-79
2022/08/05 07:33:09;;;;;;;0.30;0.30;;;26.60;54.10;;;27.15;39.47;94783.53;5034303;28;20186;-79
2022/08/05 07:35:44;;;;;;;0.20;0.20;;;26.70;54.10;;;27.24;39.58;94785.53;5052629;28;20227;-79
2022/08/05 07:38:34;;;;;;;0.30;0.30;;;26.80;54.10;;;27.33;39.44;94775.63;5059971;28;20276;-80
2022/08/05 07:41:16;;;;;;;0.30;0.30;;;26.90;54.10;;;27.39;39.13;94774.44;5072896;28;20231;-80
2022/08/05 07:44:06;;;;;;;0.20;0.20;;;27.00;54.00;;;27.54;39.46;94775.22;5040656;28;20214;-79
2022/08/05 07:46:47;;;;;;;0.32;0.32;;;27.10;54.00;;;27.65;39.37;94779.31;5050150;28;20316;-80
2022/08/05 07:49:16;;;;;;;0.28;0.28;;;27.20;54.00;;;27.74;39.41;94774.00;5041973;28;20219;-80
2022/08/05 07:51:45;;;;;;;0.30;0.30;;;27.30;54.00;;;27.83;39.27;94772.16;5052145;28;20597;-79
2022/08/05 07:54:27;;;;;;;0.30;0.30;;;27.40;53.80;;;27.95;39.29;94779.69;5050202;28;20198;-80
2022/08/05 07:57:02;;;;;;;0.28;0.28;;;27.50;54.00;;;28.04;39.39;94775.16;5047552;28;20257;-79
2022/08/05 07:59:50;;;;;;;0.20;0.20;;;27.60;53.90;;;28.15;39.54;94781.16;5037753;28;20213;-79
2022/08/05 08:02:24;;;;;;;0.30;0.30;;;27.70;53.70;;;28.23;38.88;94777.69;5033599;28;20224;-79
2022/08/05 08:04:58;;;;;;;0.30;0.30;;;27.80;53.60;;;28.34;39.04;94772.06;5035933;28;20207;-79
2022/08/05 08:07:26;;;;;;;0.28;0.28;;;27.90;53.60;;;28.44;39.10;94774.47;5070071;28;20263;-78
2022/08/05 08:09:55;;;;;;;0.20;0.20;;;28.00;53.70;;;28.49;39.14;94765.47;5072165;28;20214;-79
2022/08/05 08:12:23;;;;;;;0.20;0.20;;;28.00;53.30;;;28.64;38.55;94775.88;5034112;28;20260;-78
2022/08/05 08:15:05;;;;;;;0.30;0.30;;;28.10;53.30;;;28.75;38.47;94779.13;5071355;28;20192;-80
2022/08/05 08:17:41;;;;;;;0.20;0.20;;;28.20;53.40;;;28.84;38.76;94776.44;5050897;28;20236;-79
2022/08/05 08:20:16;;;;;;;0.30;0.30;;;28.40;53.30;;;28.93;38.61;94771.88;5054169;28;20674;-80
2022/08/05 08:23:03;;;;;;;0.30;0.30;;;28.40;53.10;;;29.01;38.30;94773.00;5087897;28;20673;-79
2022/08/05 08:25:31;;;;;;;0.30;0.30;;;28.60;53.10;;;29.07;38.91;94766.34;5068658;28;20201;-79
2022/08/05 08:28:19;;;;;;;0.30;0.30;;;28.60;53.10;;;29.22;38.31;94773.22;5065562;28;20693;-80
2022/08/05 08:31:06;;;;;;;0.25;0.25;;;28.80;52.90;;;29.37;38.20;94777.44;5060250;28;20240;-80
2022/08/05 08:33:34;;;;;;;0.22;0.22;;;28.90;53.00;;;29.47;38.64;94776.34;5058932;28;20203;-80
2022/08/05 08:36:07;;;;;;;0.30;0.30;;;29.00;53.00;;;29.58;38.34;94776.81;5047217;28;20635;-79
2022/08/05 08:38:55;;;;;;;0.40;0.40;;;29.10;52.60;;;29.71;37.80;94782.06;5066910;28;20563;-79
2022/08/05 08:41:26;;;;;;;0.20;0.20;;;29.20;52.60;;;29.85;38.32;94781.91;5048544;28;20688;-80
2022/08/05 08:44:16;;;;;;;0.32;0.32;;;29.30;52.50;;;29.99;37.67;94789.09;5061069;28;20191;-79
2022/08/05 08:47:05;;;;;;;0.50;0.50;;;29.40;52.20;;;30.11;37.59;94789.22;5060063;28;20230;-79
2022/08/05 08:49:55;;;;;;;0.40;0.40;;;29.60;52.10;;;30.21;37.72;94781.91;5049299;28;20221;-78
2022/08/05 08:52:50;;;;;;;0.50;0.50;;;29.70;51.80;;;30.35;37.68;94793.34;5051647;28;20230;-79
2022/08/05 08:55:20;;;;;;;0.45;0.45;;;29.80;51.70;;;30.47;37.18;94790.00;5047053;28;20206;-80
2022/08/05 08:58:09;;;;;;;0.60;0.60;;;29.90;51.60;;;30.53;37.47;94772.50;5061838;28;20209;-79
2022/08/05 09:00:41;;;;;;;0.22;0.22;;;30.10;51.40;;;30.68;37.46;94771.16;5030698;28;20242;-79
2022/08/05 09:03:11;;;;;;;0.25;0.25;;;30.20;51.60;;;30.84;37.16;94781.47;5052399;28;20211;-80
2022/08/05 09:05:42;;;;;;;0.20;0.20;;;30.20;51.20;;;30.97;36.51;94778.53;5070425;28;20304;-80
2022/08/05 09:08:29;;;;;;;0.30;0.30;;;30.30;50.60;;;31.12;35.91;94779.91;5067301;28;20199;-79
2022/08/05 09:10:57;;;;;;;0.30;0.30;;;30.50;50.00;;;31.22;35.86;94773.31;5062094;28;20275;-79
2022/08/05 09:13:24;;;;;;;0.20;0.20;;;30.60;49.40;;;31.33;34.98;94776.47;5058698;28;20197;-80
2022/08/05 09:16:10;;;;;;;0.30;0.30;;;30.70;48.40;;;31.45;34.85;94775.75;5055769;28;20215;-79
2022/08/05 09:18:43;;;;;;;0.30;0.30;;;30.80;48.00;;;31.60;35.02;94777.09;5062569;28;20553;-80
2022/08/05 09:21:10;;;;;;;0.30;0.30;;;30.90;48.20;;;31.71;34.59;94769.38;5063376;28;20220;-80
2022/08/05 09:24:11;;;;;;;0.25;0.25;;;31.10;49.20;;;31.82;33.09;94772.50;5058544;28;20276;-80
2022/08/05 09:26:46;;;;;;;0.30;0.30;;;31.20;47.10;;;31.90;33.92;94772.41;5062155;28;20234;-80
2022/08/05 09:29:18;;;;;;;0.20;0.20;;;31.30;48.10;;;31.99;33.26;94768.84;5070253;28;20594;-80
2022/08/05 09:32:06;;;;;;;0.40;0.40;;;31.40;47.20;;;32.07;33.56;94770.69;5029326;28;20228;-80
2022/08/05 09:34:55;;;;;;;0.22;0.22;;;31.50;47.70;;;32.16;33.82;94765.97;5045252;28;20204;-79
2022/08/05 09:37:25;;;;;;;0.20;0.20;;;31.60;47.70;;;32.23;33.38;94766.25;5001588;28;20246;-79
2022/08/05 09:40:33;;;;;;;0.20;0.20;;;31.60;46.90;;;32.30;33.80;94762.19;5036521;28;20223;-80
2022/08/05 09:43:02;;;;;;;0.30;0.30;;;31.70;47.40;;;32.41;33.47;94766.09;5066681;28;20604;-79
2022/08/05 09:45:40;;;;;;;0.20;0.20;;;31.90;47.00;;;32.50;33.56;94765.97;5089984;28;20595;-79
2022/08/05 09:48:30;;;;;;;0.20;0.20;;;31.90;47.00;;;32.63;33.03;94766.78;5055555;28;20196;-78
2022/08/05 09:51:08;;;;;;;0.30;0.30;;;32.00;46.50;;;32.73;33.03;94764.41;5059448;28;20245;-79
2022/08/05 09:53:51;;;;;;;0.20;0.20;;;32.10;45.60;;;32.84;32.34;94761.31;5065811;28;20191;-80
2022/08/05 09:56:34;;;;;;;0.30;0.30;;;32.20;46.10;;;32.96;32.64;94764.03;5053745;28;20208;-79
2022/08/05 09:59:09;;;;;;;0.20;0.20;;;32.30;45.70;;;33.09;32.26;94764.03;5065828;28;20208;-79
2022/08/05 10:01:45;;;;;;;0.30;0.30;;;32.40;45.70;;;33.19;32.48;94758.13;5054038;28;20232;-79
2022/08/05 10:04:14;;;;;;;0.30;0.30;;;32.50;45.60;;;33.30;32.21;94759.28;5052433;28;20196;-79
2022/08/05 10:06:56;;;;;;;0.30;0.30;;;32.60;45.40;;;33.38;31.63;94762.22;5051233;28;20277;-78
2022/08/05 10:09:26;;;;;;;0.30;0.30;;;32.80;45.40;;;33.45;31.41;94765.16;5036168;28;20620;-79
2022/08/05 10:12:09;;;;;;;0.30;0.30;;;32.80;44.90;;;33.51;31.47;94759.13;5063814;28;20284;-78
2022/08/05 10:15:33;;;;;;;0.30;0.30;;;32.90;45.00;;;33.57;30.73;94751.53;5059008;28;20537;-79
2022/08/05 10:18:24;;;;;;;0.30;0.30;;;33.00;43.80;;;33.63;30.63;94744.72;5036361;28;20834;-79
2022/08/05 10:20:55;;;;;;;0.20;0.20;;;33.00;42.90;;;33.69;31.04;94747.97;5066644;28;20219;-79
2022/08/05 10:23:35;;;;;;;0.20;0.20;;;33.10;42.70;;;33.75;30.24;94764.84;5053379;28;20194;-79
2022/08/05 10:26:23;;;;;;;0.20;0.20;;;33.20;42.90;;;33.82;30.45;94751.47;5032498;28;20223;-79
2022/08/05 10:28:59;;;;;;;0.30;0.30;;;33.30;43.30;;;33.87;30.67;94751.25;5049496;28;20238;-79
2022/08/05 10:31:27;;;;;;;0.30;0.30;;;33.30;43.60;;;33.96;30.59;94749.19;5053064;28;20525;-79
2022/08/05 10:34:15;;;;;;;0.22;0.22;;;33.30;43.80;;;34.05;31.11;94746.31;5039010;28;20190;-79
2022/08/05 10:36:43;;;;;;;0.30;0.30;;;33.40;43.90;;;34.18;31.19;94751.69;5063674;28;20226;-80
2022/08/05 10:39:28;;;;;;;0.30;0.30;;;33.50;43.60;;;34.26;30.40;94753.47;5032614;28;20274;-79
2022/08/05 10:42:21;;;;;;;0.20;0.20;;;33.60;43.10;;;34.34;29.44;94749.81;5046800;28;20716;-80
2022/08/05 10:45:03;;;;;;;0.25;0.25;;;33.70;41.60;;;34.43;29.79;94761.34;5022576;28;20202;-79
2022/08/05 10:47:51;;;;;;;0.20;0.20;;;33.80;42.00;;;34.57;29.63;94760.13;5038495;28;20668;-78
2022/08/05 10:51:18;;;;;;;0.20;0.20;;;33.90;42.10;;;34.66;29.36;94759.97;5050331;28;20705;-80
2022/08/05 10:53:56;;;;;;;0.30;0.30;;;34.00;41.90;;;34.75;28.56;94761.38;5056449;28;20203;-79
2022/08/05 10:56:30;;;;;;;0.20;0.20;;;34.10;40.70;;;34.82;28.86;94763.47;5087777;28;20311;-79
2022/08/05 10:58:57;;;;;;;0.20;0.20;;;34.20;40.80;;;34.90;27.84;94769.91;5061478;28;20192;-78
2022/08/05 11:01:43;;;;;;;0.22;0.22;;;34.20;40.40;;;34.98;27.96;94768.94;5045426;28;20703;-80
2022/08/05 11:04:28;;;;;;;0.20;0.20;;;34.40;40.40;;;35.07;27.85;94763.31;5037032;28;20229;-79
2022/08/05 11:06:59;;;;;;;0.20;0.20;;;34.40;40.10;;;35.10;27.08;94765.34;5034210;28;20225;-80